createdAt,value
2023-01-29T00:00:00.652Z,20.6
2023-01-29T00:05:13.023Z,20.7
2023-01-29T00:10:00.667Z,21.0
2023-01-29T00:15:00.618Z,17.5
2023-01-29T00:20:00.691Z,19.9
2023-01-29T00:25:00.661Z,21.5
2023-01-29T00:30:00.650Z,16.9
2023-01-29T00:35:00.651Z,18.0
2023-01-29T00:40:00.658Z,20.5
2023-01-29T00:45:00.638Z,19.8
2023-01-29T00:50:00.672Z,20.9
2023-01-29T00:55:00.645Z,18.0
2023-01-29T01:00:00.669Z,19.5
2023-01-29T01:05:00.658Z,21.5
2023-01-29T01:10:00.668Z,16.1
2023-01-29T01:15:00.634Z,23.4
2023-01-29T01:20:00.643Z,15.8
2023-01-29T01:25:00.666Z,16.2
2023-01-29T01:30:00.630Z,16.2
2023-01-29T01:35:00.643Z,15.5
2023-01-29T01:40:00.627Z,14.8
2023-01-29T01:45:00.665Z,16.1
2023-01-29T01:50:00.648Z,18.7
2023-01-29T01:55:00.630Z,16.5
2023-01-29T02:00:00.860Z,20.1
2023-01-29T02:05:00.645Z,15.6
2023-01-29T02:10:00.666Z,17.4
2023-01-29T02:15:00.658Z,17.4
2023-01-29T02:20:00.615Z,16.3
2023-01-29T02:25:00.654Z,18.8
2023-01-29T02:30:00.648Z,14.5
2023-01-29T02:35:00.629Z,14.8
2023-01-29T02:40:00.624Z,18.0
2023-01-29T02:45:00.654Z,18.0
2023-01-29T02:50:00.649Z,17.7
2023-01-29T02:55:00.654Z,16.5
2023-01-29T03:00:00.642Z,15.8
2023-01-29T03:05:00.645Z,17.2
2023-01-29T03:10:00.617Z,18.9
2023-01-29T03:15:00.659Z,14.9
2023-01-29T03:20:00.800Z,14.0
2023-01-29T03:25:00.674Z,14.9
2023-01-29T03:30:00.627Z,17.1
2023-01-29T03:35:00.643Z,14.4
2023-01-29T03:40:00.615Z,13.3
2023-01-29T03:45:00.662Z,12.5
2023-01-29T03:50:00.633Z,14.1
2023-01-29T03:55:00.647Z,14.4
2023-01-29T04:00:00.624Z,13.0
2023-01-29T04:05:00.681Z,14.2
2023-01-29T04:10:00.654Z,15.8
2023-01-29T04:15:00.634Z,14.0
2023-01-29T04:20:00.636Z,13.2
2023-01-29T04:25:00.654Z,12.8
2023-01-29T04:30:00.653Z,16.9
2023-01-29T04:35:00.637Z,18.7
2023-01-29T04:40:00.648Z,15.3
2023-01-29T04:45:00.624Z,15.2
2023-01-29T04:50:00.652Z,13.7
2023-01-29T04:55:00.659Z,14.5
2023-01-29T05:00:00.695Z,16.6
2023-01-29T05:05:00.608Z,13.6
2023-01-29T05:10:00.654Z,15.1
2023-01-29T05:15:00.674Z,16.6
2023-01-29T05:20:00.654Z,17.3
2023-01-29T05:25:00.618Z,16.5
2023-01-29T05:30:00.656Z,14.7
2023-01-29T05:35:00.649Z,16.7
2023-01-29T05:40:00.665Z,20.7
2023-01-29T05:45:00.637Z,14.5
2023-01-29T05:50:00.896Z,14.7
2023-01-29T05:55:00.628Z,20.4
2023-01-29T06:00:00.694Z,21.4
2023-01-29T06:05:00.661Z,17.1
2023-01-29T06:10:00.668Z,15.9
2023-01-29T06:15:00.627Z,15.0
2023-01-29T06:20:00.650Z,21.1
2023-01-29T06:25:00.659Z,16.7
2023-01-29T06:30:00.661Z,17.3
2023-01-29T06:35:00.634Z,15.2
2023-01-29T06:40:00.663Z,18.2
2023-01-29T06:45:00.631Z,16.2
2023-01-29T06:50:00.669Z,18.9
2023-01-29T06:55:00.661Z,16.1
2023-01-29T07:00:00.663Z,19.0
2023-01-29T07:05:00.626Z,16.0
2023-01-29T07:10:00.668Z,17.7
2023-01-29T07:15:00.644Z,16.2
2023-01-29T07:20:00.675Z,17.4
2023-01-29T07:25:00.634Z,17.3
2023-01-29T07:30:00.669Z,20.9
2023-01-29T07:35:00.649Z,18.2
2023-01-29T07:40:00.707Z,26.0
2023-01-29T07:45:00.660Z,23.2
2023-01-29T07:50:00.758Z,21.1
2023-01-29T07:55:00.690Z,18.1
2023-01-29T08:00:00.676Z,21.1
2023-01-29T08:05:00.743Z,23.6
2023-01-29T08:10:00.719Z,20.6
2023-01-29T08:15:00.684Z,23.9
2023-01-29T08:20:00.672Z,21.1
2023-01-29T08:25:08.280Z,21.8
2023-01-29T08:30:00.698Z,23.2
2023-01-29T08:35:00.653Z,25.3
2023-01-29T08:40:00.658Z,27.3
2023-01-29T08:45:00.876Z,27.4
2023-01-29T08:50:00.610Z,31.2
2023-01-29T08:55:00.653Z,29.7
2023-01-29T09:00:00.605Z,31.4
2023-01-29T09:05:00.677Z,29.7
2023-01-29T09:10:00.643Z,32.5
2023-01-29T09:15:00.625Z,34.5
2023-01-29T09:20:00.647Z,38.0
2023-01-29T09:25:00.650Z,37.7
2023-01-29T09:30:00.707Z,40.3
2023-01-29T09:35:00.622Z,34.8
2023-01-29T09:40:00.675Z,35.9
2023-01-29T09:45:00.657Z,35.8
2023-01-29T09:50:00.642Z,36.1
2023-01-29T09:55:00.635Z,37.6
2023-01-29T10:00:00.650Z,35.9
2023-01-29T10:05:00.634Z,39.8
2023-01-29T10:10:00.652Z,35.9
2023-01-29T10:15:00.642Z,37.7
2023-01-29T10:20:00.635Z,45.7
2023-01-29T10:25:00.639Z,37.9
2023-01-29T10:30:00.671Z,42.1
2023-01-29T10:35:00.643Z,42.0
2023-01-29T10:40:00.637Z,42.5
2023-01-29T10:45:00.672Z,38.1
2023-01-29T10:50:00.657Z,40.1
2023-01-29T10:55:00.618Z,42.8
2023-01-29T11:00:00.648Z,36.4
2023-01-29T11:05:00.639Z,39.5
2023-01-29T11:10:00.636Z,38.6
2023-01-29T11:15:00.663Z,36.7
2023-01-29T11:20:00.800Z,34.8
2023-01-29T11:25:00.649Z,33.4
2023-01-29T11:30:00.655Z,30.7
2023-01-29T11:35:00.692Z,32.3
2023-01-29T11:40:00.635Z,30.4
2023-01-29T11:45:00.606Z,31.5
2023-01-29T11:50:00.658Z,33.4
2023-01-29T11:55:00.615Z,31.5
2023-01-29T12:00:00.656Z,32.2
2023-01-29T12:05:00.993Z,29.2
2023-01-29T12:10:00.620Z,31.7
2023-01-29T12:15:00.660Z,31.2
2023-01-29T12:20:00.650Z,31.9
2023-01-29T12:25:00.646Z,29.4
2023-01-29T12:30:00.631Z,37.1
2023-01-29T12:35:00.649Z,33.3
2023-01-29T12:40:00.986Z,28.9
2023-01-29T12:45:00.658Z,29.3
2023-01-29T12:50:00.612Z,29.9
2023-01-29T12:55:00.652Z,29.5
2023-01-29T13:00:00.623Z,31.8
2023-01-29T13:05:00.656Z,29.9
2023-01-29T13:10:00.619Z,27.2
2023-01-29T13:15:00.654Z,29.5
2023-01-29T13:20:00.832Z,28.8
2023-01-29T13:25:05.184Z,26.0
2023-01-29T13:30:00.635Z,25.7
2023-01-29T13:35:00.647Z,28.1
2023-01-29T13:40:00.624Z,25.4
2023-01-29T13:45:00.630Z,27.7
2023-01-29T13:50:00.656Z,27.4
2023-01-29T13:55:00.647Z,28.9
2023-01-29T14:00:00.605Z,32.8
2023-01-29T14:05:00.700Z,28.1
2023-01-29T14:10:00.673Z,30.5
2023-01-29T14:15:00.610Z,26.0
2023-01-29T14:20:00.652Z,29.1
2023-01-29T14:25:00.705Z,27.4
2023-01-29T14:30:00.807Z,28.5
2023-01-29T14:35:00.658Z,29.6
2023-01-29T14:40:00.646Z,27.0
2023-01-29T14:45:00.650Z,29.7
2023-01-29T14:50:00.690Z,28.0
2023-01-29T14:55:00.643Z,25.1
2023-01-29T15:00:00.621Z,26.4
2023-01-29T15:05:00.699Z,27.9
2023-01-29T15:10:21.099Z,26.6
2023-01-29T15:15:00.645Z,28.4
2023-01-29T15:20:00.649Z,28.2
2023-01-29T15:25:00.659Z,29.5
2023-01-29T15:30:00.629Z,33.0
2023-01-29T15:35:00.725Z,32.0
2023-01-29T15:40:00.710Z,30.3
2023-01-29T15:45:00.638Z,34.4
2023-01-29T15:50:00.721Z,28.5
2023-01-29T15:55:00.694Z,30.4
2023-01-29T16:00:00.720Z,29.2
2023-01-29T16:05:00.652Z,29.3
2023-01-29T16:10:00.777Z,33.4
2023-01-29T16:15:00.640Z,29.8
2023-01-29T16:20:00.697Z,30.8
2023-01-29T16:25:00.684Z,32.1
2023-01-29T16:30:00.652Z,31.4
2023-01-29T16:35:00.634Z,31.0
2023-01-29T16:40:00.696Z,29.9
2023-01-29T16:45:00.685Z,33.6
2023-01-29T16:50:00.653Z,31.4
2023-01-29T16:55:00.686Z,32.1
2023-01-29T17:00:00.692Z,30.8
2023-01-29T17:05:00.644Z,30.1
2023-01-29T17:10:00.611Z,30.7
2023-01-29T17:15:00.720Z,30.0
2023-01-29T17:20:00.648Z,26.4
2023-01-29T17:25:00.618Z,27.0
2023-01-29T17:30:00.641Z,25.7
2023-01-29T17:35:00.752Z,25.8
2023-01-29T17:40:00.652Z,26.9
2023-01-29T17:45:00.663Z,27.9
2023-01-29T17:50:00.666Z,26.2
2023-01-29T17:55:00.817Z,27.5
2023-01-29T18:00:00.654Z,29.9
2023-01-29T18:05:00.662Z,26.9
2023-01-29T18:10:00.625Z,26.8
2023-01-29T18:15:00.655Z,26.9
2023-01-29T18:20:00.665Z,23.8
2023-01-29T18:25:00.644Z,26.5
2023-01-29T18:30:00.626Z,27.8
2023-01-29T18:35:00.658Z,28.4
2023-01-29T18:40:00.629Z,26.4
2023-01-29T18:45:00.704Z,29.1
2023-01-29T18:50:00.665Z,25.0
2023-01-29T18:55:00.656Z,29.1
2023-01-29T19:00:00.620Z,29.3
2023-01-29T19:05:00.647Z,30.4
2023-01-29T19:10:00.656Z,36.5
2023-01-29T19:15:00.672Z,30.7
2023-01-29T19:20:00.621Z,37.5
2023-01-29T19:25:00.666Z,39.3
2023-01-29T19:30:00.643Z,41.3
2023-01-29T19:35:00.689Z,41.9
2023-01-29T19:40:00.624Z,42.6
2023-01-29T19:45:00.670Z,45.4
2023-01-29T19:50:00.601Z,41.4
2023-01-29T19:55:00.647Z,49.1
2023-01-29T20:00:00.641Z,40.3
2023-01-29T20:05:00.648Z,50.7
2023-01-29T20:10:00.633Z,45.8
2023-01-29T20:15:00.669Z,46.2
2023-01-29T20:20:00.659Z,47.6
2023-01-29T20:25:00.639Z,45.7
2023-01-29T20:30:00.623Z,48.5
2023-01-29T20:35:00.657Z,46.9
2023-01-29T20:40:00.620Z,52.9
2023-01-29T20:45:00.682Z,44.8
2023-01-29T20:50:00.636Z,50.6
2023-01-29T20:55:00.642Z,51.5
2023-01-29T21:00:00.636Z,48.5
2023-01-29T21:05:00.645Z,46.8
2023-01-29T21:10:00.664Z,47.7
2023-01-29T21:15:00.658Z,45.8
2023-01-29T21:20:00.645Z,48.9
2023-01-29T21:25:00.641Z,48.2
2023-01-29T21:30:00.641Z,46.8
2023-01-29T21:35:00.639Z,46.8
2023-01-29T21:40:00.645Z,48.7
2023-01-29T21:45:00.665Z,49.9
2023-01-29T21:50:00.668Z,46.2
2023-01-29T21:55:00.631Z,44.0
2023-01-29T22:00:00.664Z,45.2
2023-01-29T22:05:16.612Z,45.1
2023-01-29T22:10:00.644Z,41.6
2023-01-29T22:15:00.667Z,46.8
2023-01-29T22:20:00.662Z,43.8
2023-01-29T22:25:00.670Z,51.0
2023-01-29T22:30:00.619Z,45.3
2023-01-29T22:35:00.804Z,47.2
2023-01-29T22:40:00.667Z,37.7
2023-01-29T22:45:00.629Z,42.5
2023-01-29T22:50:00.650Z,41.3
2023-01-29T22:55:00.661Z,43.3
2023-01-29T23:00:00.641Z,38.5
2023-01-29T23:05:00.646Z,39.3
2023-01-29T23:10:00.670Z,36.1
2023-01-29T23:15:00.671Z,36.4
2023-01-29T23:20:00.665Z,36.7
2023-01-29T23:25:00.653Z,35.7
2023-01-29T23:30:00.662Z,33.1
2023-01-29T23:35:00.621Z,37.6
2023-01-29T23:40:00.678Z,38.3
2023-01-29T23:45:00.681Z,34.4
2023-01-29T23:50:00.638Z,36.2
2023-01-29T23:55:00.810Z,33.6
